createdAt,value
2022-11-03T00:00:02.938Z,37.9250
2022-11-03T00:00:13.998Z,37.9130
2022-11-03T00:00:25.061Z,37.9190
2022-11-03T00:00:36.247Z,37.9550
2022-11-03T00:00:47.417Z,37.9660
2022-11-03T00:00:58.618Z,37.9840
2022-11-03T00:01:09.818Z,37.9720
2022-11-03T00:01:21.041Z,37.9950
2022-11-03T00:01:32.265Z,37.9950
2022-11-03T00:01:43.547Z,38.0590
2022-11-03T00:01:54.752Z,38.1120
2022-11-03T00:02:05.955Z,38.1360
2022-11-03T00:02:17.314Z,38.1770
2022-11-03T00:02:28.617Z,38.1950
2022-11-03T00:02:39.809Z,38.1950
2022-11-03T00:02:51.000Z,38.1830
2022-11-03T00:03:02.137Z,38.1130
2022-11-03T00:03:13.381Z,37.9610
2022-11-03T00:03:24.539Z,37.8470
2022-11-03T00:03:35.737Z,37.8170
2022-11-03T00:03:46.939Z,37.7910
2022-11-03T00:03:58.144Z,37.7870
2022-11-03T00:04:09.340Z,37.8750
2022-11-03T00:04:20.455Z,37.9150
2022-11-03T00:04:31.529Z,37.8340
2022-11-03T00:04:42.618Z,37.8870
2022-11-03T00:04:53.823Z,37.8320
2022-11-03T00:05:04.856Z,37.8020
2022-11-03T00:05:15.909Z,37.7680
2022-11-03T00:05:27.104Z,37.8430
2022-11-03T00:05:38.331Z,37.9060
2022-11-03T00:05:49.868Z,37.9420
2022-11-03T00:06:01.025Z,37.9270
2022-11-03T00:06:12.077Z,37.9160
2022-11-03T00:06:23.157Z,37.9160
2022-11-03T00:06:34.298Z,37.8650
2022-11-03T00:06:45.498Z,37.8010
2022-11-03T00:06:56.704Z,37.8180
2022-11-03T00:07:07.738Z,37.8520
2022-11-03T00:07:18.787Z,37.8240
2022-11-03T00:07:29.977Z,37.8620
2022-11-03T00:07:41.178Z,37.8210
2022-11-03T00:07:52.378Z,37.7620
2022-11-03T00:08:03.659Z,37.7280
2022-11-03T00:08:14.780Z,37.7220
2022-11-03T00:08:25.977Z,37.7560
2022-11-03T00:08:37.181Z,37.7620
2022-11-03T00:08:48.386Z,37.7920
2022-11-03T00:08:59.576Z,37.8090
2022-11-03T00:09:10.624Z,37.7620
2022-11-03T00:09:21.669Z,37.7280
2022-11-03T00:09:32.865Z,37.7160
2022-11-03T00:09:44.058Z,37.6800
2022-11-03T00:09:55.261Z,37.6050
2022-11-03T00:10:06.461Z,37.6460
2022-11-03T00:10:17.657Z,37.5990
2022-11-03T00:10:28.859Z,37.5420
2022-11-03T00:10:40.088Z,37.4950
2022-11-03T00:10:51.258Z,37.4610
2022-11-03T00:11:02.459Z,37.5100
2022-11-03T00:11:13.527Z,37.5150
2022-11-03T00:11:24.587Z,37.4790
2022-11-03T00:11:35.762Z,37.4140
2022-11-03T00:11:46.943Z,37.4720
2022-11-03T00:11:58.138Z,37.4360
2022-11-03T00:12:09.336Z,37.4660
2022-11-03T00:12:20.537Z,37.5060
2022-11-03T00:12:31.748Z,37.4960
2022-11-03T00:12:42.938Z,37.5710
2022-11-03T00:12:54.138Z,37.5650
2022-11-03T00:13:05.591Z,37.5050
2022-11-03T00:13:16.907Z,37.4260
2022-11-03T00:13:28.057Z,37.3500
2022-11-03T00:13:39.261Z,37.2690
2022-11-03T00:13:50.458Z,37.3040
2022-11-03T00:14:01.657Z,37.2740
2022-11-03T00:14:12.879Z,37.2340
2022-11-03T00:14:24.058Z,37.2280
2022-11-03T00:14:35.257Z,37.3210
2022-11-03T00:14:46.459Z,37.1660
2022-11-03T00:14:57.659Z,37.0100
2022-11-03T00:15:08.858Z,36.9640
2022-11-03T00:15:19.917Z,37.0400
2022-11-03T00:15:30.977Z,37.0800
2022-11-03T00:15:42.167Z,37.0160
2022-11-03T00:15:53.340Z,37.0620
2022-11-03T00:16:04.537Z,37.0700
2022-11-03T00:16:15.736Z,37.0920
2022-11-03T00:16:26.937Z,37.0700
2022-11-03T00:16:38.136Z,37.0790
2022-11-03T00:16:49.337Z,37.1960
2022-11-03T00:17:00.538Z,37.2620
2022-11-03T00:17:11.737Z,37.1700
2022-11-03T00:17:22.940Z,37.1060
2022-11-03T00:17:34.177Z,37.0020
2022-11-03T00:17:45.347Z,36.9790
2022-11-03T00:17:56.539Z,37.0130
2022-11-03T00:18:07.747Z,37.1170
2022-11-03T00:18:18.807Z,37.1640
2022-11-03T00:18:29.870Z,37.1420
2022-11-03T00:18:41.018Z,37.0130
2022-11-03T00:18:52.216Z,37.0600
2022-11-03T00:19:03.427Z,37.0480
2022-11-03T00:19:14.630Z,37.0610
2022-11-03T00:19:25.687Z,37.1310
2022-11-03T00:19:36.766Z,37.0520
2022-11-03T00:19:47.897Z,36.9160
2022-11-03T00:19:59.097Z,36.8880
2022-11-03T00:20:10.298Z,36.9560
2022-11-03T00:20:21.504Z,36.9690
2022-11-03T00:20:32.698Z,36.9740
2022-11-03T00:20:43.928Z,37.0070
2022-11-03T00:20:55.097Z,37.0070
2022-11-03T00:21:06.297Z,36.9770
2022-11-03T00:21:17.506Z,36.9540
2022-11-03T00:21:28.548Z,36.9020
2022-11-03T00:21:39.588Z,36.7860
2022-11-03T00:21:50.781Z,36.6940
2022-11-03T00:22:01.978Z,36.6670
2022-11-03T00:22:13.184Z,36.6730
2022-11-03T00:22:24.377Z,36.6730
2022-11-03T00:22:35.577Z,36.6210
2022-11-03T00:22:46.777Z,36.5980
2022-11-03T00:22:57.989Z,36.6040
2022-11-03T00:23:09.246Z,36.5290
2022-11-03T00:23:20.377Z,36.4950
2022-11-03T00:23:31.418Z,36.4650
2022-11-03T00:23:42.456Z,36.4480
2022-11-03T00:23:53.658Z,36.4480
2022-11-03T00:24:04.857Z,36.4190
2022-11-03T00:24:16.067Z,36.4140
2022-11-03T00:24:27.258Z,36.4310
2022-11-03T00:24:38.457Z,36.4640
2022-11-03T00:24:49.669Z,36.5460
2022-11-03T00:25:00.860Z,36.5230
2022-11-03T00:25:12.058Z,36.5120
2022-11-03T00:25:23.257Z,36.4950
2022-11-03T00:25:34.297Z,36.4950
2022-11-03T00:25:45.368Z,36.4590
2022-11-03T00:25:56.550Z,36.4760
2022-11-03T00:26:07.737Z,36.4700
2022-11-03T00:26:18.939Z,36.4590
2022-11-03T00:26:30.137Z,36.4480
2022-11-03T00:26:41.360Z,36.5830
2022-11-03T00:26:52.544Z,36.5720
2022-11-03T00:27:03.741Z,36.5240
2022-11-03T00:27:14.938Z,36.5180
2022-11-03T00:27:26.137Z,36.5180
2022-11-03T00:27:37.180Z,36.5410
2022-11-03T00:27:48.218Z,36.5480
2022-11-03T00:27:59.532Z,36.5530
2022-11-03T00:28:10.623Z,36.5290
2022-11-03T00:28:21.818Z,36.5160
2022-11-03T00:28:33.018Z,36.5190
2022-11-03T00:28:44.218Z,36.5240
2022-11-03T00:28:55.418Z,36.4380
2022-11-03T00:29:06.616Z,36.3080
2022-11-03T00:29:17.820Z,36.2230
2022-11-03T00:29:29.017Z,36.1570
2022-11-03T00:29:40.057Z,36.1520
2022-11-03T00:29:51.098Z,36.1770
2022-11-03T00:30:02.328Z,36.2280
2022-11-03T00:30:13.498Z,36.2580
2022-11-03T00:30:24.697Z,36.2170
2022-11-03T00:30:35.896Z,36.2000
2022-11-03T00:30:47.127Z,36.1470
2022-11-03T00:30:58.297Z,36.1360
2022-11-03T00:31:09.497Z,36.0890
2022-11-03T00:31:20.698Z,36.0210
2022-11-03T00:31:31.898Z,35.9910
2022-11-03T00:31:42.948Z,36.0500
2022-11-03T00:31:53.988Z,36.0780
2022-11-03T00:32:05.179Z,36.0830
2022-11-03T00:32:16.377Z,36.0500
2022-11-03T00:32:27.577Z,36.0440
2022-11-03T00:32:38.795Z,36.0380
2022-11-03T00:32:49.977Z,35.9580
2022-11-03T00:33:01.177Z,35.8720
2022-11-03T00:33:12.218Z,35.8020
2022-11-03T00:33:23.257Z,35.7700
2022-11-03T00:33:34.457Z,35.7760
2022-11-03T00:33:45.666Z,35.8040
2022-11-03T00:33:56.858Z,35.8340
2022-11-03T00:34:07.909Z,35.8150
2022-11-03T00:34:18.979Z,35.7980
2022-11-03T00:34:30.137Z,35.7930
2022-11-03T00:34:41.338Z,35.8040
2022-11-03T00:34:52.378Z,35.8040
2022-11-03T00:35:03.434Z,35.7910
2022-11-03T00:35:14.628Z,35.7220
2022-11-03T00:35:25.819Z,35.6980
2022-11-03T00:35:37.018Z,35.7070
2022-11-03T00:35:48.338Z,35.6730
2022-11-03T00:35:59.379Z,35.6320
2022-11-03T00:36:10.446Z,35.5740
2022-11-03T00:36:21.499Z,35.5570
2022-11-03T00:36:32.697Z,35.5710
2022-11-03T00:36:43.929Z,35.5650
2022-11-03T00:36:55.097Z,35.5590
2022-11-03T00:37:06.167Z,35.4660
2022-11-03T00:37:17.238Z,35.4610
2022-11-03T00:37:28.377Z,35.5010
2022-11-03T00:37:39.577Z,35.5000
2022-11-03T00:37:50.788Z,35.4940
2022-11-03T00:38:01.979Z,35.5240
2022-11-03T00:38:13.177Z,35.5180
2022-11-03T00:38:24.381Z,35.5110
2022-11-03T00:38:35.577Z,35.5000
2022-11-03T00:38:46.780Z,35.5000
2022-11-03T00:38:57.978Z,35.5000
2022-11-03T00:39:09.019Z,35.4830
2022-11-03T00:39:20.067Z,35.4600
2022-11-03T00:39:31.275Z,35.4880
2022-11-03T00:39:42.338Z,35.4770
2022-11-03T00:39:53.397Z,35.4870
2022-11-03T00:40:04.549Z,35.4750
2022-11-03T00:40:15.738Z,35.4510
2022-11-03T00:40:26.938Z,35.4630
2022-11-03T00:40:38.143Z,35.5950
2022-11-03T00:40:49.374Z,35.6530
2022-11-03T00:41:00.537Z,35.6650
2022-11-03T00:41:11.596Z,35.7000
2022-11-03T00:41:22.670Z,35.6460
2022-11-03T00:41:33.816Z,35.5250
2022-11-03T00:41:45.040Z,35.4970
2022-11-03T00:41:56.077Z,35.4700
2022-11-03T00:42:07.137Z,35.4410
2022-11-03T00:42:18.217Z,35.4240
2022-11-03T00:42:29.288Z,35.5040
2022-11-03T00:42:40.377Z,35.5890
2022-11-03T00:42:51.578Z,35.6170
2022-11-03T00:43:03.076Z,35.6150
2022-11-03T00:43:14.308Z,35.6360
2022-11-03T00:43:25.505Z,35.6490
2022-11-03T00:43:36.706Z,35.5930
2022-11-03T00:43:47.900Z,35.5880
2022-11-03T00:43:58.972Z,35.5240
2022-11-03T00:44:10.020Z,35.4570
2022-11-03T00:44:21.217Z,35.4870
2022-11-03T00:44:32.376Z,35.5310
2022-11-03T00:44:43.582Z,35.4870
2022-11-03T00:44:54.777Z,35.4460
2022-11-03T00:45:06.338Z,35.4300
2022-11-03T00:45:17.497Z,35.3650
2022-11-03T00:45:28.698Z,35.3120
2022-11-03T00:45:39.897Z,35.2960
2022-11-03T00:45:51.127Z,35.3240
2022-11-03T00:46:02.298Z,35.4110
2022-11-03T00:46:13.498Z,35.4940
2022-11-03T00:46:24.698Z,35.5500
2022-11-03T00:46:36.036Z,35.5130
2022-11-03T00:46:47.115Z,35.4950
2022-11-03T00:46:58.300Z,35.4550
2022-11-03T00:47:09.498Z,35.4780
2022-11-03T00:47:23.385Z,35.5020
2022-11-03T00:47:35.457Z,35.5300
2022-11-03T00:47:46.576Z,35.4350
2022-11-03T00:47:57.600Z,35.3810
2022-11-03T00:48:08.699Z,35.3470
2022-11-03T00:48:19.899Z,35.3000
2022-11-03T00:48:31.101Z,35.2540
2022-11-03T00:48:42.305Z,35.2670
2022-11-03T00:48:53.338Z,35.3660
2022-11-03T00:49:04.388Z,35.4290
2022-11-03T00:49:15.577Z,35.4760
2022-11-03T00:49:26.787Z,35.4520
2022-11-03T00:49:37.887Z,35.4980
2022-11-03T00:49:48.954Z,35.5120
2022-11-03T00:50:00.008Z,35.4780
2022-11-03T00:50:11.057Z,35.4570
2022-11-03T00:50:22.137Z,35.4910
2022-11-03T00:50:33.337Z,35.4850
2022-11-03T00:50:44.549Z,35.3790
2022-11-03T00:50:55.767Z,35.3330
2022-11-03T00:51:06.825Z,35.3040
2022-11-03T00:51:17.897Z,35.3040
2022-11-03T00:51:29.017Z,35.3120
2022-11-03T00:51:40.217Z,35.2780
2022-11-03T00:51:51.417Z,35.3340
2022-11-03T00:52:02.617Z,35.3470
2022-11-03T00:52:13.819Z,35.3120
2022-11-03T00:52:25.017Z,35.2840
2022-11-03T00:52:36.217Z,35.2430
2022-11-03T00:52:47.423Z,35.2260
2022-11-03T00:52:58.617Z,35.2260
2022-11-03T00:53:09.667Z,35.2480
2022-11-03T00:53:20.710Z,35.2890
2022-11-03T00:53:31.900Z,35.4030
2022-11-03T00:53:43.115Z,35.3120
2022-11-03T00:53:54.304Z,35.3060
2022-11-03T00:54:05.510Z,35.3380
2022-11-03T00:54:16.592Z,35.3160
2022-11-03T00:54:27.628Z,35.2090
2022-11-03T00:54:38.777Z,35.2090
2022-11-03T00:54:54.266Z,35.2780
2022-11-03T00:55:06.940Z,35.4470
2022-11-03T00:55:17.994Z,35.3380
2022-11-03T00:55:29.028Z,35.3850
2022-11-03T00:55:40.218Z,35.4350
2022-11-03T00:55:51.417Z,35.3720
2022-11-03T00:56:02.647Z,35.3040
2022-11-03T00:56:13.817Z,35.2640
2022-11-03T00:56:25.019Z,35.1720
2022-11-03T00:56:36.217Z,35.0430
2022-11-03T00:56:47.417Z,35.0430
2022-11-03T00:56:58.643Z,35.2320
2022-11-03T00:57:09.819Z,35.3000
2022-11-03T00:57:20.857Z,35.1630
2022-11-03T00:57:31.896Z,35.0320
2022-11-03T00:57:43.097Z,35.0000
2022-11-03T00:57:54.297Z,35.0230
2022-11-03T00:58:05.498Z,35.1180
2022-11-03T00:58:16.698Z,35.1800
2022-11-03T00:58:27.898Z,35.0600
2022-11-03T00:58:39.101Z,34.9970
2022-11-03T00:58:50.297Z,34.9630
2022-11-03T00:59:01.510Z,34.9060
2022-11-03T00:59:12.547Z,34.9170
2022-11-03T00:59:23.586Z,34.9280
2022-11-03T00:59:34.775Z,34.8850
2022-11-03T00:59:45.977Z,34.8480
2022-11-03T00:59:57.179Z,34.8160
2022-11-03T01:00:08.384Z,34.8040
2022-11-03T01:00:19.577Z,34.8210
2022-11-03T01:00:30.777Z,34.8490
2022-11-03T01:00:42.012Z,34.8490
2022-11-03T01:00:53.240Z,34.8840
2022-11-03T01:01:04.470Z,34.9120
2022-11-03T01:01:15.716Z,34.9120
2022-11-03T01:01:26.976Z,34.9120
2022-11-03T01:01:43.965Z,34.9420
2022-11-03T01:01:55.230Z,35.0760
2022-11-03T01:02:06.586Z,34.9000
2022-11-03T01:02:17.767Z,34.7940
2022-11-03T01:02:28.958Z,34.7510
2022-11-03T01:02:40.098Z,34.7470
2022-11-03T01:02:51.261Z,34.7410
2022-11-03T01:03:02.520Z,34.7300
2022-11-03T01:03:13.657Z,34.6930
2022-11-03T01:03:24.858Z,34.6300
2022-11-03T01:03:36.049Z,34.6650
2022-11-03T01:03:47.256Z,34.7500
2022-11-03T01:03:58.456Z,34.7260
2022-11-03T01:04:09.656Z,34.6760
2022-11-03T01:04:20.708Z,34.6570
2022-11-03T01:04:31.774Z,34.6520
2022-11-03T01:04:42.936Z,34.7260
2022-11-03T01:04:54.138Z,34.7150
2022-11-03T01:05:05.346Z,34.6870
2022-11-03T01:05:16.539Z,34.7320
2022-11-03T01:05:27.579Z,34.7820
2022-11-03T01:05:38.617Z,34.7410
2022-11-03T01:05:49.817Z,34.6670
2022-11-03T01:06:01.018Z,34.6500
2022-11-03T01:06:12.258Z,34.5990
2022-11-03T01:06:23.417Z,34.5650
2022-11-03T01:06:34.617Z,34.5270
2022-11-03T01:06:45.817Z,34.5440
2022-11-03T01:06:57.017Z,34.5440
2022-11-03T01:07:08.217Z,34.4530
2022-11-03T01:07:19.417Z,34.4590
2022-11-03T01:07:30.619Z,34.4390
2022-11-03T01:07:41.827Z,34.4110
2022-11-03T01:07:53.069Z,34.4850
2022-11-03T01:08:04.230Z,34.5540
2022-11-03T01:08:15.419Z,34.6780
2022-11-03T01:08:27.703Z,34.6360
2022-11-03T01:08:39.137Z,34.6360
2022-11-03T01:08:50.299Z,34.6650
2022-11-03T01:09:01.506Z,34.6490
2022-11-03T01:09:12.541Z,34.6080
2022-11-03T01:09:23.607Z,34.5940
2022-11-03T01:09:34.786Z,34.6020
2022-11-03T01:09:45.977Z,34.6300
2022-11-03T01:09:57.178Z,34.6140
2022-11-03T01:10:08.377Z,34.5660
2022-11-03T01:10:19.418Z,34.5600
2022-11-03T01:10:30.457Z,34.5030
2022-11-03T01:10:41.657Z,34.3910
2022-11-03T01:10:52.858Z,34.4080
2022-11-03T01:11:04.064Z,34.4220
2022-11-03T01:11:15.287Z,34.4560
2022-11-03T01:11:26.460Z,34.4740
2022-11-03T01:11:37.657Z,34.4680
2022-11-03T01:11:48.863Z,34.4680
2022-11-03T01:12:00.057Z,34.4740
2022-11-03T01:12:11.286Z,34.4630
2022-11-03T01:12:22.311Z,34.4630
2022-11-03T01:12:33.347Z,34.4480
2022-11-03T01:12:44.537Z,34.4480
2022-11-03T01:12:55.738Z,34.4080
2022-11-03T01:13:07.281Z,34.3410
2022-11-03T01:13:18.468Z,34.3320
2022-11-03T01:13:29.658Z,34.3190
2022-11-03T01:13:40.857Z,34.3070
2022-11-03T01:13:52.059Z,34.2810
2022-11-03T01:14:03.257Z,34.2320
2022-11-03T01:14:14.470Z,34.2000
2022-11-03T01:14:25.557Z,34.2110
2022-11-03T01:14:36.618Z,34.2110
2022-11-03T01:14:47.750Z,34.2110
2022-11-03T01:14:58.938Z,34.2220
2022-11-03T01:15:09.977Z,34.2220
2022-11-03T01:15:21.018Z,34.2110
2022-11-03T01:15:32.217Z,34.2110
2022-11-03T01:15:43.428Z,34.1780
2022-11-03T01:15:54.650Z,34.1320
2022-11-03T01:16:05.824Z,34.1400
2022-11-03T01:16:17.056Z,34.1400
2022-11-03T01:16:28.097Z,34.1290
2022-11-03T01:16:39.159Z,34.1180
2022-11-03T01:16:50.297Z,34.1050
2022-11-03T01:17:01.497Z,34.1180
2022-11-03T01:17:12.537Z,34.1290
2022-11-03T01:17:23.589Z,34.0780
2022-11-03T01:17:34.633Z,34.0550
2022-11-03T01:17:45.657Z,34.0500
2022-11-03T01:17:56.858Z,34.0390
2022-11-03T01:18:08.059Z,34.0720
2022-11-03T01:18:19.257Z,34.1000
2022-11-03T01:18:30.457Z,34.1050
2022-11-03T01:18:41.518Z,34.0830
2022-11-03T01:18:52.587Z,34.0550
2022-11-03T01:19:03.745Z,34.0550
2022-11-03T01:19:14.938Z,34.0720
2022-11-03T01:19:26.137Z,34.0260
2022-11-03T01:19:37.336Z,34.0310
2022-11-03T01:19:48.545Z,34.0720
2022-11-03T01:19:59.737Z,34.0890
2022-11-03T01:20:10.937Z,34.0940
2022-11-03T01:20:22.137Z,34.0940
2022-11-03T01:20:33.337Z,34.0930
2022-11-03T01:20:44.538Z,34.0820
2022-11-03T01:20:55.738Z,34.0660
2022-11-03T01:21:06.938Z,34.0550
2022-11-03T01:21:18.165Z,34.0580
2022-11-03T01:21:29.337Z,34.0930
2022-11-03T01:21:40.377Z,34.0980
2022-11-03T01:21:51.417Z,34.1090
2022-11-03T01:22:06.354Z,34.1320
2022-11-03T01:22:19.584Z,34.2930
2022-11-03T01:22:30.779Z,34.2270
2022-11-03T01:22:41.820Z,34.1880
2022-11-03T01:22:52.854Z,34.1360
2022-11-03T01:23:04.513Z,34.1420
2022-11-03T01:23:15.937Z,34.1830
2022-11-03T01:23:27.097Z,34.1880
2022-11-03T01:23:38.137Z,34.1990
2022-11-03T01:23:49.177Z,34.1830
2022-11-03T01:24:00.378Z,34.1840
2022-11-03T01:24:11.578Z,34.1790
2022-11-03T01:24:22.640Z,34.1840
2022-11-03T01:24:33.697Z,34.1790
2022-11-03T01:24:44.747Z,34.1670
2022-11-03T01:24:55.808Z,34.1510
2022-11-03T01:25:06.938Z,34.1510
2022-11-03T01:25:18.138Z,34.1510
2022-11-03T01:25:29.339Z,34.1220
2022-11-03T01:25:40.547Z,34.1300
2022-11-03T01:25:51.737Z,34.1640
2022-11-03T01:26:02.937Z,34.1410
2022-11-03T01:26:14.137Z,34.0950
2022-11-03T01:26:25.368Z,34.0670
2022-11-03T01:26:36.546Z,34.0450
2022-11-03T01:26:47.587Z,34.0560
2022-11-03T01:26:58.629Z,34.0450
2022-11-03T01:27:09.817Z,34.0950
2022-11-03T01:27:21.060Z,34.1250
2022-11-03T01:27:32.223Z,34.1020
2022-11-03T01:27:43.416Z,34.0230
2022-11-03T01:27:54.521Z,33.9990
2022-11-03T01:28:05.821Z,34.0670
2022-11-03T01:28:17.021Z,34.1470
2022-11-03T01:28:28.057Z,34.2360
2022-11-03T01:28:39.108Z,34.2330
2022-11-03T01:28:50.308Z,34.1420
2022-11-03T01:29:01.515Z,34.1980
2022-11-03T01:29:12.704Z,34.2720
2022-11-03T01:29:23.897Z,34.3380
2022-11-03T01:29:35.097Z,34.3640
2022-11-03T01:29:46.297Z,34.5150
2022-11-03T01:29:57.496Z,34.6270
2022-11-03T01:30:08.697Z,34.7120
2022-11-03T01:30:19.903Z,34.7900
2022-11-03T01:30:30.936Z,34.6770
2022-11-03T01:30:41.987Z,34.5100
2022-11-03T01:30:53.177Z,34.4550
2022-11-03T01:31:04.377Z,34.4550
2022-11-03T01:31:15.578Z,34.4150
2022-11-03T01:31:26.807Z,34.4150
2022-11-03T01:31:37.979Z,34.3860
2022-11-03T01:31:49.185Z,34.3860
2022-11-03T01:32:00.379Z,34.4250
2022-11-03T01:32:11.589Z,34.4600
2022-11-03T01:32:22.778Z,34.3970
2022-11-03T01:32:33.977Z,34.4030
2022-11-03T01:32:45.176Z,34.3510
2022-11-03T01:32:56.217Z,34.3340
2022-11-03T01:33:07.617Z,34.2840
2022-11-03T01:33:18.827Z,34.3060
2022-11-03T01:33:29.978Z,34.2950
2022-11-03T01:33:41.180Z,34.2600
2022-11-03T01:33:52.377Z,34.2660
2022-11-03T01:34:03.577Z,34.2950
2022-11-03T01:34:14.778Z,34.3130
2022-11-03T01:34:25.985Z,34.3020
2022-11-03T01:34:37.178Z,34.2630
2022-11-03T01:34:48.485Z,34.1950
2022-11-03T01:34:59.510Z,34.1410
2022-11-03T01:35:10.578Z,34.1000
2022-11-03T01:35:21.668Z,34.0910
2022-11-03T01:35:32.858Z,34.1100
2022-11-03T01:35:44.058Z,34.3830
2022-11-03T01:35:55.264Z,34.4920
2022-11-03T01:36:06.459Z,34.3810
2022-11-03T01:36:17.657Z,34.3120
2022-11-03T01:36:28.890Z,34.2730
2022-11-03T01:36:40.057Z,34.2940
2022-11-03T01:36:51.263Z,34.2810
2022-11-03T01:37:02.297Z,34.2370
2022-11-03T01:37:13.347Z,34.2200
2022-11-03T01:37:24.539Z,34.2460
2022-11-03T01:37:35.737Z,34.2630
2022-11-03T01:37:46.940Z,34.2270
2022-11-03T01:37:58.139Z,34.2600
2022-11-03T01:38:09.337Z,34.3800
2022-11-03T01:38:20.538Z,34.4300
2022-11-03T01:38:31.745Z,34.4660
2022-11-03T01:38:42.779Z,34.4030
2022-11-03T01:38:53.817Z,34.4030
2022-11-03T01:39:05.016Z,34.4080
2022-11-03T01:39:16.221Z,34.4270
2022-11-03T01:39:27.417Z,34.5570
2022-11-03T01:39:38.624Z,34.5630
2022-11-03T01:39:49.657Z,34.5460
2022-11-03T01:40:00.696Z,34.5410
2022-11-03T01:40:11.737Z,34.4610
2022-11-03T01:40:22.790Z,34.4150
2022-11-03T01:40:33.979Z,34.2960
2022-11-03T01:40:45.176Z,34.2150
2022-11-03T01:40:56.377Z,34.1640
2022-11-03T01:41:07.583Z,34.1580
2022-11-03T01:41:18.783Z,34.1360
2022-11-03T01:41:30.006Z,34.1040
2022-11-03T01:41:41.180Z,34.0690
2022-11-03T01:41:52.410Z,34.0200
2022-11-03T01:42:03.578Z,34.0100
2022-11-03T01:42:14.658Z,33.9930
2022-11-03T01:42:25.691Z,34.0520
2022-11-03T01:42:36.863Z,34.1590
2022-11-03T01:42:48.058Z,34.2310
2022-11-03T01:42:59.264Z,34.2590
2022-11-03T01:43:10.463Z,34.3870
2022-11-03T01:43:21.658Z,34.3580
2022-11-03T01:43:32.858Z,34.3120
2022-11-03T01:43:44.056Z,34.2270
2022-11-03T01:43:55.098Z,34.1810
2022-11-03T01:44:06.137Z,34.2000
2022-11-03T01:44:17.338Z,34.2110
2022-11-03T01:44:28.541Z,34.2060
2022-11-03T01:44:39.738Z,34.2170
2022-11-03T01:44:50.790Z,34.1890
2022-11-03T01:45:01.831Z,34.1600
2022-11-03T01:45:12.879Z,34.2340
2022-11-03T01:45:23.931Z,34.2340
2022-11-03T01:45:35.097Z,34.2490
2022-11-03T01:45:46.303Z,34.2710
2022-11-03T01:45:57.505Z,34.2430
2022-11-03T01:46:08.697Z,34.2100
2022-11-03T01:46:19.898Z,34.1860
2022-11-03T01:46:31.128Z,34.1810
2022-11-03T01:46:42.297Z,34.2040
2022-11-03T01:46:53.497Z,34.2320
2022-11-03T01:47:04.699Z,34.2840
2022-11-03T01:47:15.897Z,34.2430
2022-11-03T01:47:26.939Z,34.2430
2022-11-03T01:47:37.978Z,34.3340
2022-11-03T01:47:49.313Z,34.3640
2022-11-03T01:48:00.393Z,34.2320
2022-11-03T01:48:11.577Z,34.1360
2022-11-03T01:48:22.779Z,34.0950
2022-11-03T01:48:33.977Z,34.1470
2022-11-03T01:48:45.178Z,34.2100
2022-11-03T01:48:56.378Z,34.1750
2022-11-03T01:49:07.577Z,34.1860
2022-11-03T01:49:18.777Z,34.2100
2022-11-03T01:49:29.846Z,34.2150
2022-11-03T01:49:40.908Z,34.2210
2022-11-03T01:49:51.968Z,34.2150
2022-11-03T01:50:03.037Z,34.1810
2022-11-03T01:50:14.137Z,34.1580
2022-11-03T01:50:25.177Z,34.1490
2022-11-03T01:50:36.216Z,34.1430
2022-11-03T01:50:47.417Z,34.1100
2022-11-03T01:50:58.539Z,34.1210
2022-11-03T01:51:09.597Z,34.1040
2022-11-03T01:51:20.698Z,34.0750
2022-11-03T01:51:31.928Z,34.0610
2022-11-03T01:51:42.977Z,34.0550
2022-11-03T01:51:54.038Z,34.0490
2022-11-03T01:52:05.177Z,34.0740
2022-11-03T01:52:16.277Z,34.0630
2022-11-03T01:52:27.342Z,34.0880
2022-11-03T01:52:38.457Z,34.0940
2022-11-03T01:52:49.512Z,34.0770
2022-11-03T01:53:00.536Z,34.0350
2022-11-03T01:53:11.738Z,34.0460
2022-11-03T01:53:22.937Z,34.0910
2022-11-03T01:53:34.138Z,34.1200
2022-11-03T01:53:45.356Z,34.0790
2022-11-03T01:53:56.548Z,34.0680
2022-11-03T01:54:07.736Z,34.0400
2022-11-03T01:54:18.939Z,34.0290
2022-11-03T01:54:30.147Z,34.0060
2022-11-03T01:54:41.338Z,34.0170
2022-11-03T01:54:52.388Z,33.9830
2022-11-03T01:55:03.421Z,33.9830
2022-11-03T01:55:14.620Z,33.9780
2022-11-03T01:55:25.816Z,33.9890
2022-11-03T01:55:37.023Z,33.9720
2022-11-03T01:55:48.217Z,33.9750
2022-11-03T01:55:59.417Z,33.9810
2022-11-03T01:56:10.617Z,33.9870
2022-11-03T01:56:21.818Z,33.9750
2022-11-03T01:56:33.057Z,33.9500
2022-11-03T01:56:44.219Z,33.9550
2022-11-03T01:56:55.258Z,33.9500
2022-11-03T01:57:06.307Z,33.9400
2022-11-03T01:57:17.505Z,33.9290
2022-11-03T01:57:28.721Z,33.9130
2022-11-03T01:57:39.923Z,33.8850
2022-11-03T01:57:51.108Z,33.8670
2022-11-03T01:58:02.178Z,33.8960
2022-11-03T01:58:13.217Z,33.8910
2022-11-03T01:58:24.376Z,33.8960
2022-11-03T01:58:35.576Z,33.9080
2022-11-03T01:58:46.778Z,33.9590
2022-11-03T01:58:57.977Z,33.9700
2022-11-03T01:59:09.083Z,33.9510
2022-11-03T01:59:20.137Z,33.9020
2022-11-03T01:59:31.257Z,33.9020
2022-11-03T01:59:42.461Z,33.9130
2022-11-03T01:59:53.497Z,33.9290
2022-11-03T02:00:04.536Z,33.9350
2022-11-03T02:00:15.747Z,33.9260
2022-11-03T02:00:26.947Z,33.9580
2022-11-03T02:00:38.138Z,34.0150
2022-11-03T02:00:49.377Z,34.0870
2022-11-03T02:01:00.592Z,34.0690
2022-11-03T02:01:11.794Z,34.0580
2022-11-03T02:01:23.110Z,34.0080
2022-11-03T02:01:34.376Z,33.9510
2022-11-03T02:01:45.584Z,34.0130
2022-11-03T02:01:56.932Z,34.1150
2022-11-03T02:02:08.232Z,34.0730
2022-11-03T02:02:19.669Z,34.0300
2022-11-03T02:02:30.899Z,34.0010
2022-11-03T02:02:41.977Z,33.9900
2022-11-03T02:02:53.180Z,33.9790
2022-11-03T02:03:04.792Z,33.9560
2022-11-03T02:03:16.328Z,33.9790
2022-11-03T02:03:27.417Z,33.9730
2022-11-03T02:03:38.626Z,33.9300
2022-11-03T02:03:49.817Z,33.9190
2022-11-03T02:04:00.858Z,33.9250
2022-11-03T02:04:11.898Z,33.9300
2022-11-03T02:04:23.098Z,33.9080
2022-11-03T02:04:34.297Z,33.8950
2022-11-03T02:04:45.495Z,33.8400
2022-11-03T02:04:56.697Z,33.8300
2022-11-03T02:05:07.898Z,33.8300
2022-11-03T02:05:19.096Z,33.8470
2022-11-03T02:05:30.297Z,33.8580
2022-11-03T02:05:41.496Z,33.9020
2022-11-03T02:05:52.697Z,33.9250
2022-11-03T02:06:03.738Z,33.9580
2022-11-03T02:06:14.786Z,34.0100
2022-11-03T02:06:25.978Z,33.9730
2022-11-03T02:06:37.296Z,34.0080
2022-11-03T02:06:48.378Z,34.0210
2022-11-03T02:06:59.577Z,34.0330
2022-11-03T02:07:10.778Z,33.9990
2022-11-03T02:07:21.977Z,33.9880
2022-11-03T02:07:33.183Z,33.9470
2022-11-03T02:07:44.376Z,33.9140
2022-11-03T02:07:55.634Z,33.8940
2022-11-03T02:08:06.657Z,33.8990
2022-11-03T02:08:17.721Z,33.9200
2022-11-03T02:08:28.863Z,33.9420
2022-11-03T02:08:40.059Z,33.9420
2022-11-03T02:08:51.265Z,33.9200
2022-11-03T02:09:02.457Z,33.9770
2022-11-03T02:09:13.509Z,34.0900
2022-11-03T02:09:24.577Z,34.0840
2022-11-03T02:09:35.736Z,34.0510
2022-11-03T02:09:46.938Z,33.9940
2022-11-03T02:09:58.138Z,33.9440
2022-11-03T02:10:09.336Z,33.9150
2022-11-03T02:10:20.537Z,33.9040
2022-11-03T02:10:31.745Z,33.9210
2022-11-03T02:10:42.938Z,33.8870
2022-11-03T02:10:54.144Z,33.8820
2022-11-03T02:11:05.338Z,33.9030
2022-11-03T02:11:16.539Z,33.8630
2022-11-03T02:11:27.738Z,33.8400
2022-11-03T02:11:38.966Z,33.8000
2022-11-03T02:11:50.136Z,33.7630
2022-11-03T02:12:01.338Z,33.7630
2022-11-03T02:12:12.427Z,33.7810
2022-11-03T02:12:23.497Z,33.7980
2022-11-03T02:12:34.640Z,33.8140
2022-11-03T02:12:45.817Z,33.8540
2022-11-03T02:12:57.026Z,33.8400
2022-11-03T02:13:08.464Z,33.8250
2022-11-03T02:13:19.736Z,33.8090
2022-11-03T02:13:30.937Z,33.7980
2022-11-03T02:13:42.139Z,33.8820
2022-11-03T02:13:53.347Z,33.9090
2022-11-03T02:14:04.538Z,34.1470
2022-11-03T02:14:15.736Z,34.0270
2022-11-03T02:14:26.937Z,34.0100
2022-11-03T02:14:38.138Z,33.9600
2022-11-03T02:14:49.338Z,33.9090
2022-11-03T02:15:00.555Z,33.8920
2022-11-03T02:15:11.587Z,33.8460
2022-11-03T02:15:22.648Z,33.8300